Terminal Aerodrome Forecast
Issued by NWS Mt. Holly, NJ

Home | Current Version | Previous Version | Text Only | Print | Product List | Glossary On
Versions: 1 2 3 4 5 6 7 8 9 10 11 12 13 14 15 16 17 18 19 20 21 22 23 24 25 26
000
FTUS41 KPHI 172205 AAB
TAFABE
TAF AMD
KABE 172205Z 1722/1818 VRB03KT 1/2SM SN VV002
     FM180600 VRB03KT 3SM BR OVC005
     FM180800 29008KT P6SM BKN015
     FM181000 30010G18KT P6SM SCT035
     FM181400 30008KT P6SM SCT050=

USA.gov is the U.S. government's official web portal to all federal, state and local government web resources and services.